Main page
METAR-TAF:

METAR-TAF

Airports :

Paine Field

Everett, Washington, United States

latitude: 47-55-23N, longitude: 122-16-57W, elevation: 604 ft

Current weather observation

The report was made 1 hour and 4 minutes ago, at 18:53 UTC
Wind 9 mph from the North
Temperature 66°F
Humidity 60%
Pressure 30.02 in. Hg
Visibility: 10 miles
Clear sky

METAR: KPAE 191853Z 36008KT 10SM CLR 19/11 A3002 RMK AO2 SLP165 T01890106

Time: 12:57 (19:57 UTC)

Forecast

The report was made 2 hours and 37 minutes ago, at 17:20 UTC
Forecast valid from 19 at 18 UTC to 20 at 18 UTC
Wind 9 mph from the North/Northwest
Visibility: 6 miles
Clear sky
From 19 at 2100 UTC
Wind 13 mph from the North
Visibility: 6 miles
Clear sky
From 20 at 0400 UTC
Wind 7 mph from the North
Visibility: 6 miles
Clear sky
From 20 at 1000 UTC
Wind 3 mph from variable directions
Visibility: 6 miles
Clear sky

TAF: KPAE 191720Z 1918/2018 33008KT P6SM SKC FM192100 35011KT P6SM SKC FM200400 01006KT P6SM SKC FM201000 VRB03KT P6SM SKC

Weather observations and forecasts of more than 4000 airports (METAR and TAF reports).

The available stations are represented by yellow and red dots on the map.

Hover mouse over dot to see the name of the station.

Then click to see weather observations and forecasts.

To change the map : click on the green buttons with a black cross to zoom in, on the green button with a dash to zoom out, or on the green arrows for adjacent maps.


METAR-TAF: